sensor_id;sensor_type;location;lat;lon;timestamp;P1;durP1;ratioP1;P2;durP2;ratioP2
55330;SDS011;58851;42.984;20.336;2023-09-19T00:00:30;18.35;;;11.90;;
55330;SDS011;58851;42.984;20.336;2023-09-19T00:02:57;17.52;;;12.27;;
55330;SDS011;58851;42.984;20.336;2023-09-19T00:05:26;18.63;;;12.00;;
55330;SDS011;58851;42.984;20.336;2023-09-19T00:07:54;23.73;;;12.63;;
55330;SDS011;58851;42.984;20.336;2023-09-19T00:10:23;20.23;;;12.85;;
55330;SDS011;58851;42.984;20.336;2023-09-19T00:12:52;22.20;;;12.98;;
55330;SDS011;58851;42.984;20.336;2023-09-19T00:15:24;17.52;;;13.07;;
55330;SDS011;58851;42.984;20.336;2023-09-19T00:17:53;16.42;;;11.68;;
55330;SDS011;58851;42.984;20.336;2023-09-19T00:20:20;17.15;;;11.48;;
55330;SDS011;58851;42.984;20.336;2023-09-19T00:22:51;20.13;;;11.57;;
55330;SDS011;58851;42.984;20.336;2023-09-19T00:25:18;18.08;;;11.75;;
55330;SDS011;58851;42.984;20.336;2023-09-19T00:27:45;23.48;;;11.63;;
55330;SDS011;58851;42.984;20.336;2023-09-19T00:30:16;17.42;;;11.57;;
55330;SDS011;58851;42.984;20.336;2023-09-19T00:32:48;18.08;;;12.55;;
55330;SDS011;58851;42.984;20.336;2023-09-19T00:35:17;19.23;;;12.93;;
55330;SDS011;58851;42.984;20.336;2023-09-19T00:37:49;20.73;;;12.63;;
55330;SDS011;58851;42.984;20.336;2023-09-19T00:40:15;19.35;;;12.50;;
55330;SDS011;58851;42.984;20.336;2023-09-19T00:42:44;17.90;;;12.50;;
55330;SDS011;58851;42.984;20.336;2023-09-19T00:45:12;17.95;;;12.25;;
55330;SDS011;58851;42.984;20.336;2023-09-19T00:47:39;16.13;;;12.45;;
55330;SDS011;58851;42.984;20.336;2023-09-19T00:50:07;15.68;;;12.38;;
55330;SDS011;58851;42.984;20.336;2023-09-19T00:52:35;17.92;;;12.05;;
55330;SDS011;58851;42.984;20.336;2023-09-19T00:55:07;20.88;;;12.38;;
55330;SDS011;58851;42.984;20.336;2023-09-19T00:57:34;19.60;;;13.93;;
55330;SDS011;58851;42.984;20.336;2023-09-19T01:00:03;18.80;;;12.65;;
55330;SDS011;58851;42.984;20.336;2023-09-19T01:02:32;18.30;;;11.60;;
55330;SDS011;58851;42.984;20.336;2023-09-19T01:04:59;15.35;;;11.75;;
55330;SDS011;58851;42.984;20.336;2023-09-19T01:07:26;20.17;;;12.60;;
55330;SDS011;58851;42.984;20.336;2023-09-19T01:09:55;21.90;;;13.13;;
55330;SDS011;58851;42.984;20.336;2023-09-19T01:12:28;22.40;;;13.13;;
55330;SDS011;58851;42.984;20.336;2023-09-19T01:21:22;16.10;;;11.77;;
55330;SDS011;58851;42.984;20.336;2023-09-19T01:29:17;17.52;;;12.77;;
55330;SDS011;58851;42.984;20.336;2023-09-19T01:31:59;22.55;;;13.05;;
55330;SDS011;58851;42.984;20.336;2023-09-19T01:34:42;20.40;;;13.02;;
55330;SDS011;58851;42.984;20.336;2023-09-19T01:37:12;20.40;;;12.68;;
55330;SDS011;58851;42.984;20.336;2023-09-19T01:39:45;21.25;;;14.50;;
55330;SDS011;58851;42.984;20.336;2023-09-19T01:42:28;15.98;;;11.55;;
55330;SDS011;58851;42.984;20.336;2023-09-19T01:48:49;22.35;;;13.50;;
55330;SDS011;58851;42.984;20.336;2023-09-19T01:51:13;25.92;;;14.00;;
55330;SDS011;58851;42.984;20.336;2023-09-19T01:54:08;25.38;;;16.67;;
55330;SDS011;58851;42.984;20.336;2023-09-19T01:56:37;28.13;;;15.32;;
55330;SDS011;58851;42.984;20.336;2023-09-19T01:59:13;24.80;;;15.73;;
55330;SDS011;58851;42.984;20.336;2023-09-19T02:01:42;24.52;;;14.55;;
55330;SDS011;58851;42.984;20.336;2023-09-19T02:04:10;21.38;;;13.98;;
55330;SDS011;58851;42.984;20.336;2023-09-19T02:06:40;20.98;;;12.25;;
55330;SDS011;58851;42.984;20.336;2023-09-19T02:09:06;21.30;;;13.23;;
55330;SDS011;58851;42.984;20.336;2023-09-19T02:11:32;24.85;;;13.90;;
55330;SDS011;58851;42.984;20.336;2023-09-19T02:13:58;18.80;;;13.05;;
55330;SDS011;58851;42.984;20.336;2023-09-19T02:16:24;21.70;;;14.50;;
55330;SDS011;58851;42.984;20.336;2023-09-19T02:18:50;20.80;;;12.70;;
55330;SDS011;58851;42.984;20.336;2023-09-19T02:21:16;17.85;;;12.23;;
55330;SDS011;58851;42.984;20.336;2023-09-19T02:23:43;18.80;;;13.50;;
55330;SDS011;58851;42.984;20.336;2023-09-19T02:26:12;20.48;;;13.27;;
55330;SDS011;58851;42.984;20.336;2023-09-19T02:28:39;17.02;;;12.43;;
55330;SDS011;58851;42.984;20.336;2023-09-19T02:31:04;17.85;;;13.38;;
55330;SDS011;58851;42.984;20.336;2023-09-19T02:33:31;18.40;;;11.82;;
55330;SDS011;58851;42.984;20.336;2023-09-19T02:35:57;14.52;;;12.18;;
55330;SDS011;58851;42.984;20.336;2023-09-19T02:38:27;15.20;;;12.02;;
55330;SDS011;58851;42.984;20.336;2023-09-19T02:40:54;21.63;;;11.82;;
55330;SDS011;58851;42.984;20.336;2023-09-19T02:43:20;21.15;;;12.30;;
55330;SDS011;58851;42.984;20.336;2023-09-19T02:45:47;17.92;;;12.40;;
55330;SDS011;58851;42.984;20.336;2023-09-19T02:48:15;20.73;;;13.18;;
55330;SDS011;58851;42.984;20.336;2023-09-19T02:50:42;28.35;;;14.98;;
55330;SDS011;58851;42.984;20.336;2023-09-19T02:53:08;19.83;;;14.60;;
55330;SDS011;58851;42.984;20.336;2023-09-19T02:55:37;17.48;;;12.77;;
55330;SDS011;58851;42.984;20.336;2023-09-19T02:58:05;19.65;;;12.55;;
55330;SDS011;58851;42.984;20.336;2023-09-19T03:00:33;19.42;;;12.73;;
55330;SDS011;58851;42.984;20.336;2023-09-19T03:03:01;14.88;;;11.70;;
55330;SDS011;58851;42.984;20.336;2023-09-19T03:05:27;13.98;;;11.30;;
55330;SDS011;58851;42.984;20.336;2023-09-19T03:07:56;19.58;;;13.85;;
55330;SDS011;58851;42.984;20.336;2023-09-19T03:10:22;18.88;;;13.10;;
55330;SDS011;58851;42.984;20.336;2023-09-19T03:12:50;25.35;;;17.05;;
55330;SDS011;58851;42.984;20.336;2023-09-19T03:15:16;25.83;;;17.35;;
55330;SDS011;58851;42.984;20.336;2023-09-19T03:17:44;22.80;;;14.73;;
55330;SDS011;58851;42.984;20.336;2023-09-19T03:20:10;18.02;;;13.95;;
55330;SDS011;58851;42.984;20.336;2023-09-19T03:22:38;20.90;;;13.93;;
55330;SDS011;58851;42.984;20.336;2023-09-19T03:25:05;24.23;;;15.65;;
55330;SDS011;58851;42.984;20.336;2023-09-19T03:27:35;20.50;;;14.40;;
55330;SDS011;58851;42.984;20.336;2023-09-19T03:30:02;18.85;;;14.20;;
55330;SDS011;58851;42.984;20.336;2023-09-19T03:32:33;21.23;;;14.88;;
55330;SDS011;58851;42.984;20.336;2023-09-19T03:35:02;20.38;;;14.25;;
55330;SDS011;58851;42.984;20.336;2023-09-19T03:37:30;20.77;;;14.38;;
55330;SDS011;58851;42.984;20.336;2023-09-19T03:39:57;21.77;;;14.68;;
55330;SDS011;58851;42.984;20.336;2023-09-19T03:42:23;15.10;;;11.07;;
55330;SDS011;58851;42.984;20.336;2023-09-19T03:44:51;18.02;;;13.10;;
55330;SDS011;58851;42.984;20.336;2023-09-19T03:47:18;16.75;;;13.18;;
55330;SDS011;58851;42.984;20.336;2023-09-19T03:49:46;17.90;;;13.43;;
55330;SDS011;58851;42.984;20.336;2023-09-19T03:52:13;17.42;;;13.65;;
55330;SDS011;58851;42.984;20.336;2023-09-19T03:54:40;20.30;;;12.13;;
55330;SDS011;58851;42.984;20.336;2023-09-19T03:57:06;20.73;;;14.55;;
55330;SDS011;58851;42.984;20.336;2023-09-19T03:59:32;21.25;;;14.00;;
55330;SDS011;58851;42.984;20.336;2023-09-19T04:01:58;20.95;;;14.98;;
55330;SDS011;58851;42.984;20.336;2023-09-19T04:04:24;23.13;;;15.25;;
55330;SDS011;58851;42.984;20.336;2023-09-19T04:06:53;22.42;;;15.10;;
55330;SDS011;58851;42.984;20.336;2023-09-19T04:09:19;28.20;;;16.67;;
55330;SDS011;58851;42.984;20.336;2023-09-19T04:11:44;23.20;;;16.85;;
55330;SDS011;58851;42.984;20.336;2023-09-19T04:14:10;26.40;;;16.25;;
55330;SDS011;58851;42.984;20.336;2023-09-19T04:16:36;22.55;;;16.15;;
55330;SDS011;58851;42.984;20.336;2023-09-19T04:19:04;28.90;;;16.50;;
55330;SDS011;58851;42.984;20.336;2023-09-19T04:21:30;21.38;;;15.57;;
55330;SDS011;58851;42.984;20.336;2023-09-19T04:23:57;17.00;;;14.27;;
55330;SDS011;58851;42.984;20.336;2023-09-19T04:26:23;21.45;;;15.55;;
55330;SDS011;58851;42.984;20.336;2023-09-19T04:28:50;26.60;;;16.33;;
55330;SDS011;58851;42.984;20.336;2023-09-19T04:31:16;19.88;;;14.93;;
55330;SDS011;58851;42.984;20.336;2023-09-19T04:33:43;22.30;;;15.73;;
55330;SDS011;58851;42.984;20.336;2023-09-19T04:36:09;33.92;;;21.90;;
55330;SDS011;58851;42.984;20.336;2023-09-19T04:38:35;33.30;;;22.20;;
55330;SDS011;58851;42.984;20.336;2023-09-19T04:41:00;33.58;;;21.75;;
55330;SDS011;58851;42.984;20.336;2023-09-19T04:43:26;37.30;;;23.90;;
55330;SDS011;58851;42.984;20.336;2023-09-19T04:45:53;34.00;;;21.45;;
55330;SDS011;58851;42.984;20.336;2023-09-19T04:48:21;31.58;;;22.23;;
55330;SDS011;58851;42.984;20.336;2023-09-19T04:50:49;24.48;;;16.90;;
55330;SDS011;58851;42.984;20.336;2023-09-19T04:53:16;25.73;;;17.40;;
55330;SDS011;58851;42.984;20.336;2023-09-19T04:55:54;24.98;;;17.02;;
55330;SDS011;58851;42.984;20.336;2023-09-19T04:58:21;30.70;;;20.38;;
55330;SDS011;58851;42.984;20.336;2023-09-19T05:00:47;31.23;;;19.27;;
55330;SDS011;58851;42.984;20.336;2023-09-19T05:03:16;25.42;;;17.25;;
55330;SDS011;58851;42.984;20.336;2023-09-19T05:05:42;23.50;;;17.63;;
55330;SDS011;58851;42.984;20.336;2023-09-19T05:08:08;23.40;;;17.42;;
55330;SDS011;58851;42.984;20.336;2023-09-19T05:10:35;20.88;;;16.55;;
55330;SDS011;58851;42.984;20.336;2023-09-19T05:13:04;26.67;;;18.38;;
55330;SDS011;58851;42.984;20.336;2023-09-19T05:15:30;29.25;;;18.35;;
55330;SDS011;58851;42.984;20.336;2023-09-19T05:17:56;25.70;;;17.17;;
55330;SDS011;58851;42.984;20.336;2023-09-19T05:20:22;28.67;;;18.55;;
55330;SDS011;58851;42.984;20.336;2023-09-19T05:23:05;28.40;;;16.85;;
55330;SDS011;58851;42.984;20.336;2023-09-19T05:25:36;28.02;;;17.63;;
55330;SDS011;58851;42.984;20.336;2023-09-19T05:28:07;26.10;;;18.48;;
55330;SDS011;58851;42.984;20.336;2023-09-19T05:30:35;24.70;;;17.63;;
55330;SDS011;58851;42.984;20.336;2023-09-19T05:33:03;34.78;;;18.60;;
55330;SDS011;58851;42.984;20.336;2023-09-19T05:35:30;29.10;;;18.15;;
55330;SDS011;58851;42.984;20.336;2023-09-19T05:37:56;24.33;;;16.75;;
55330;SDS011;58851;42.984;20.336;2023-09-19T05:40:23;23.50;;;16.08;;
55330;SDS011;58851;42.984;20.336;2023-09-19T05:42:50;22.15;;;15.90;;
55330;SDS011;58851;42.984;20.336;2023-09-19T05:45:15;23.20;;;16.65;;
55330;SDS011;58851;42.984;20.336;2023-09-19T05:47:50;25.73;;;16.48;;
55330;SDS011;58851;42.984;20.336;2023-09-19T05:50:20;22.98;;;16.50;;
55330;SDS011;58851;42.984;20.336;2023-09-19T05:52:53;27.50;;;17.30;;
55330;SDS011;58851;42.984;20.336;2023-09-19T05:55:21;23.42;;;16.80;;
55330;SDS011;58851;42.984;20.336;2023-09-19T05:57:50;21.55;;;16.50;;
55330;SDS011;58851;42.984;20.336;2023-09-19T06:00:17;25.48;;;17.00;;
55330;SDS011;58851;42.984;20.336;2023-09-19T06:02:53;27.80;;;16.75;;
55330;SDS011;58851;42.984;20.336;2023-09-19T06:05:20;33.20;;;17.52;;
55330;SDS011;58851;42.984;20.336;2023-09-19T06:07:47;26.67;;;17.55;;
55330;SDS011;58851;42.984;20.336;2023-09-19T06:10:13;25.63;;;18.80;;
55330;SDS011;58851;42.984;20.336;2023-09-19T06:12:40;26.00;;;17.77;;
55330;SDS011;58851;42.984;20.336;2023-09-19T06:15:09;27.23;;;18.50;;
55330;SDS011;58851;42.984;20.336;2023-09-19T06:17:40;31.60;;;19.38;;
55330;SDS011;58851;42.984;20.336;2023-09-19T06:20:15;30.88;;;18.10;;
55330;SDS011;58851;42.984;20.336;2023-09-19T06:22:42;35.42;;;18.95;;
55330;SDS011;58851;42.984;20.336;2023-09-19T06:25:12;31.17;;;20.70;;
55330;SDS011;58851;42.984;20.336;2023-09-19T06:27:48;29.35;;;18.10;;
55330;SDS011;58851;42.984;20.336;2023-09-19T06:30:20;30.65;;;21.15;;
55330;SDS011;58851;42.984;20.336;2023-09-19T06:32:46;34.05;;;25.58;;
55330;SDS011;58851;42.984;20.336;2023-09-19T06:35:14;28.38;;;21.70;;
55330;SDS011;58851;42.984;20.336;2023-09-19T06:37:41;43.45;;;23.02;;
55330;SDS011;58851;42.984;20.336;2023-09-19T06:40:09;28.42;;;20.85;;
55330;SDS011;58851;42.984;20.336;2023-09-19T06:42:43;29.85;;;18.60;;
55330;SDS011;58851;42.984;20.336;2023-09-19T06:45:13;27.43;;;17.00;;
55330;SDS011;58851;42.984;20.336;2023-09-19T06:47:46;24.67;;;17.42;;
55330;SDS011;58851;42.984;20.336;2023-09-19T06:50:16;22.10;;;16.73;;
55330;SDS011;58851;42.984;20.336;2023-09-19T06:52:48;24.63;;;15.55;;
55330;SDS011;58851;42.984;20.336;2023-09-19T06:55:17;22.95;;;16.33;;
55330;SDS011;58851;42.984;20.336;2023-09-19T06:57:45;26.73;;;17.38;;
55330;SDS011;58851;42.984;20.336;2023-09-19T07:00:14;25.05;;;16.50;;
55330;SDS011;58851;42.984;20.336;2023-09-19T07:03:02;26.88;;;14.68;;
55330;SDS011;58851;42.984;20.336;2023-09-19T07:05:33;31.65;;;20.02;;
55330;SDS011;58851;42.984;20.336;2023-09-19T07:08:02;28.52;;;19.10;;
55330;SDS011;58851;42.984;20.336;2023-09-19T07:10:28;34.17;;;20.73;;
55330;SDS011;58851;42.984;20.336;2023-09-19T07:12:56;25.83;;;19.10;;
55330;SDS011;58851;42.984;20.336;2023-09-19T07:15:23;29.48;;;18.73;;
55330;SDS011;58851;42.984;20.336;2023-09-19T07:17:50;29.55;;;20.88;;
55330;SDS011;58851;42.984;20.336;2023-09-19T07:20:19;32.15;;;20.55;;
55330;SDS011;58851;42.984;20.336;2023-09-19T07:22:45;26.33;;;19.85;;
55330;SDS011;58851;42.984;20.336;2023-09-19T07:25:13;27.77;;;18.70;;
55330;SDS011;58851;42.984;20.336;2023-09-19T07:50:39;31.65;;;20.45;;
55330;SDS011;58851;42.984;20.336;2023-09-19T07:53:05;25.40;;;18.05;;
55330;SDS011;58851;42.984;20.336;2023-09-19T07:55:31;27.17;;;18.25;;
55330;SDS011;58851;42.984;20.336;2023-09-19T07:57:59;22.77;;;16.33;;
55330;SDS011;58851;42.984;20.336;2023-09-19T08:00:25;30.05;;;17.42;;
55330;SDS011;58851;42.984;20.336;2023-09-19T08:02:50;21.15;;;14.05;;
55330;SDS011;58851;42.984;20.336;2023-09-19T08:05:19;18.60;;;14.27;;
55330;SDS011;58851;42.984;20.336;2023-09-19T08:07:46;23.75;;;15.02;;
55330;SDS011;58851;42.984;20.336;2023-09-19T08:10:14;25.35;;;18.08;;
55330;SDS011;58851;42.984;20.336;2023-09-19T08:12:44;28.50;;;18.38;;
55330;SDS011;58851;42.984;20.336;2023-09-19T08:15:15;29.10;;;18.23;;
55330;SDS011;58851;42.984;20.336;2023-09-19T08:17:43;32.75;;;17.52;;
55330;SDS011;58851;42.984;20.336;2023-09-19T08:20:09;29.30;;;18.08;;
55330;SDS011;58851;42.984;20.336;2023-09-19T08:22:42;27.48;;;18.00;;
55330;SDS011;58851;42.984;20.336;2023-09-19T08:25:11;28.88;;;16.65;;
55330;SDS011;58851;42.984;20.336;2023-09-19T08:27:37;24.50;;;15.18;;
55330;SDS011;58851;42.984;20.336;2023-09-19T08:30:03;31.75;;;16.58;;
55330;SDS011;58851;42.984;20.336;2023-09-19T08:32:29;21.38;;;13.32;;
55330;SDS011;58851;42.984;20.336;2023-09-19T08:34:54;22.10;;;15.60;;
55330;SDS011;58851;42.984;20.336;2023-09-19T08:37:20;26.80;;;15.45;;
55330;SDS011;58851;42.984;20.336;2023-09-19T08:39:46;22.77;;;14.45;;
55330;SDS011;58851;42.984;20.336;2023-09-19T08:42:12;19.67;;;14.90;;
55330;SDS011;58851;42.984;20.336;2023-09-19T08:44:38;28.42;;;16.25;;
55330;SDS011;58851;42.984;20.336;2023-09-19T08:47:14;23.13;;;13.18;;
55330;SDS011;58851;42.984;20.336;2023-09-19T08:52:32;23.77;;;13.68;;
55330;SDS011;58851;42.984;20.336;2023-09-19T08:55:06;28.75;;;15.05;;
55330;SDS011;58851;42.984;20.336;2023-09-19T08:57:35;24.33;;;11.23;;
55330;SDS011;58851;42.984;20.336;2023-09-19T09:00:06;20.40;;;10.75;;
55330;SDS011;58851;42.984;20.336;2023-09-19T09:02:38;22.65;;;11.48;;
55330;SDS011;58851;42.984;20.336;2023-09-19T09:05:08;20.17;;;12.02;;
55330;SDS011;58851;42.984;20.336;2023-09-19T09:07:36;23.98;;;11.70;;
55330;SDS011;58851;42.984;20.336;2023-09-19T09:10:03;20.35;;;12.15;;
55330;SDS011;58851;42.984;20.336;2023-09-19T09:12:30;19.15;;;12.13;;
55330;SDS011;58851;42.984;20.336;2023-09-19T09:14:56;18.02;;;11.00;;
55330;SDS011;58851;42.984;20.336;2023-09-19T09:17:25;19.30;;;10.43;;
55330;SDS011;58851;42.984;20.336;2023-09-19T09:19:52;19.58;;;11.02;;
55330;SDS011;58851;42.984;20.336;2023-09-19T09:22:18;23.75;;;11.43;;
55330;SDS011;58851;42.984;20.336;2023-09-19T09:24:58;18.88;;;12.18;;
55330;SDS011;58851;42.984;20.336;2023-09-19T09:27:26;19.75;;;11.10;;
55330;SDS011;58851;42.984;20.336;2023-09-19T09:29:52;22.23;;;11.55;;
55330;SDS011;58851;42.984;20.336;2023-09-19T09:32:25;21.63;;;12.07;;
55330;SDS011;58851;42.984;20.336;2023-09-19T09:34:57;17.13;;;10.32;;
55330;SDS011;58851;42.984;20.336;2023-09-19T09:37:24;20.45;;;9.25;;
55330;SDS011;58851;42.984;20.336;2023-09-19T09:39:52;23.90;;;10.07;;
55330;SDS011;58851;42.984;20.336;2023-09-19T09:42:34;18.50;;;8.88;;
55330;SDS011;58851;42.984;20.336;2023-09-19T09:45:13;18.90;;;8.73;;
55330;SDS011;58851;42.984;20.336;2023-09-19T09:47:58;28.95;;;8.85;;
55330;SDS011;58851;42.984;20.336;2023-09-19T09:50:29;18.67;;;9.68;;
55330;SDS011;58851;42.984;20.336;2023-09-19T09:53:23;19.58;;;8.60;;
55330;SDS011;58851;42.984;20.336;2023-09-19T09:55:59;25.02;;;9.23;;
55330;SDS011;58851;42.984;20.336;2023-09-19T09:58:33;16.83;;;9.38;;
55330;SDS011;58851;42.984;20.336;2023-09-19T10:01:00;15.35;;;8.98;;
55330;SDS011;58851;42.984;20.336;2023-09-19T10:03:36;24.08;;;8.73;;
55330;SDS011;58851;42.984;20.336;2023-09-19T10:06:12;22.25;;;9.25;;
55330;SDS011;58851;42.984;20.336;2023-09-19T10:09:05;34.17;;;8.32;;
55330;SDS011;58851;42.984;20.336;2023-09-19T10:11:43;19.20;;;6.97;;
55330;SDS011;58851;42.984;20.336;2023-09-19T10:14:16;17.98;;;6.20;;
55330;SDS011;58851;42.984;20.336;2023-09-19T10:16:49;20.70;;;7.85;;
55330;SDS011;58851;42.984;20.336;2023-09-19T10:19:20;22.65;;;7.53;;
55330;SDS011;58851;42.984;20.336;2023-09-19T10:32:25;31.63;;;7.22;;
55330;SDS011;58851;42.984;20.336;2023-09-19T10:34:52;34.85;;;7.70;;
55330;SDS011;58851;42.984;20.336;2023-09-19T10:37:20;25.00;;;6.63;;
55330;SDS011;58851;42.984;20.336;2023-09-19T10:39:50;22.42;;;7.63;;
55330;SDS011;58851;42.984;20.336;2023-09-19T10:42:19;30.23;;;7.60;;
55330;SDS011;58851;42.984;20.336;2023-09-19T10:44:47;33.92;;;8.18;;
55330;SDS011;58851;42.984;20.336;2023-09-19T10:47:20;20.35;;;6.65;;
55330;SDS011;58851;42.984;20.336;2023-09-19T10:49:46;19.70;;;7.68;;
55330;SDS011;58851;42.984;20.336;2023-09-19T10:52:13;17.35;;;6.95;;
55330;SDS011;58851;42.984;20.336;2023-09-19T10:54:48;18.73;;;7.60;;
55330;SDS011;58851;42.984;20.336;2023-09-19T10:57:23;22.02;;;7.53;;
55330;SDS011;58851;42.984;20.336;2023-09-19T11:00:04;23.10;;;7.38;;
55330;SDS011;58851;42.984;20.336;2023-09-19T11:09:03;23.73;;;6.68;;
55330;SDS011;58851;42.984;20.336;2023-09-19T11:30:42;31.67;;;7.45;;
55330;SDS011;58851;42.984;20.336;2023-09-19T11:43:50;21.35;;;7.03;;
55330;SDS011;58851;42.984;20.336;2023-09-19T11:46:29;21.60;;;7.50;;
55330;SDS011;58851;42.984;20.336;2023-09-19T11:49:04;17.35;;;6.35;;
55330;SDS011;58851;42.984;20.336;2023-09-19T11:51:51;22.35;;;6.95;;
55330;SDS011;58851;42.984;20.336;2023-09-19T11:54:17;15.13;;;6.28;;
55330;SDS011;58851;42.984;20.336;2023-09-19T11:56:44;17.15;;;6.25;;
55330;SDS011;58851;42.984;20.336;2023-09-19T11:59:19;23.83;;;6.93;;
55330;SDS011;58851;42.984;20.336;2023-09-19T12:01:56;28.00;;;8.30;;
55330;SDS011;58851;42.984;20.336;2023-09-19T12:04:40;26.65;;;7.22;;
55330;SDS011;58851;42.984;20.336;2023-09-19T12:07:12;25.15;;;6.25;;
55330;SDS011;58851;42.984;20.336;2023-09-19T12:09:42;28.77;;;6.35;;
55330;SDS011;58851;42.984;20.336;2023-09-19T12:12:18;19.73;;;6.53;;
55330;SDS011;58851;42.984;20.336;2023-09-19T12:14:55;19.75;;;6.30;;
55330;SDS011;58851;42.984;20.336;2023-09-19T12:17:24;20.85;;;5.70;;
55330;SDS011;58851;42.984;20.336;2023-09-19T12:20:04;23.63;;;5.80;;
55330;SDS011;58851;42.984;20.336;2023-09-19T12:22:43;21.85;;;7.88;;
55330;SDS011;58851;42.984;20.336;2023-09-19T12:25:10;29.45;;;14.90;;
55330;SDS011;58851;42.984;20.336;2023-09-19T12:30:09;27.98;;;7.45;;
55330;SDS011;58851;42.984;20.336;2023-09-19T12:32:39;21.38;;;6.53;;
55330;SDS011;58851;42.984;20.336;2023-09-19T12:35:09;18.33;;;5.63;;
55330;SDS011;58851;42.984;20.336;2023-09-19T12:37:36;29.33;;;6.55;;
55330;SDS011;58851;42.984;20.336;2023-09-19T12:40:05;22.23;;;7.82;;
55330;SDS011;58851;42.984;20.336;2023-09-19T12:42:53;24.77;;;5.97;;
55330;SDS011;58851;42.984;20.336;2023-09-19T12:45:29;21.23;;;5.97;;
55330;SDS011;58851;42.984;20.336;2023-09-19T12:51:02;24.42;;;6.82;;
55330;SDS011;58851;42.984;20.336;2023-09-19T12:56:05;19.77;;;7.03;;
55330;SDS011;58851;42.984;20.336;2023-09-19T12:58:33;23.30;;;6.90;;
55330;SDS011;58851;42.984;20.336;2023-09-19T13:01:00;22.52;;;7.82;;
55330;SDS011;58851;42.984;20.336;2023-09-19T13:03:28;23.95;;;7.43;;
55330;SDS011;58851;42.984;20.336;2023-09-19T13:06:03;23.52;;;6.45;;
55330;SDS011;58851;42.984;20.336;2023-09-19T13:08:36;20.65;;;6.13;;
55330;SDS011;58851;42.984;20.336;2023-09-19T13:11:16;23.08;;;5.70;;
55330;SDS011;58851;42.984;20.336;2023-09-19T13:13:51;20.27;;;6.28;;
55330;SDS011;58851;42.984;20.336;2023-09-19T13:19:58;27.08;;;8.23;;
55330;SDS011;58851;42.984;20.336;2023-09-19T13:22:39;19.77;;;9.45;;
55330;SDS011;58851;42.984;20.336;2023-09-19T13:25:20;20.30;;;8.88;;
55330;SDS011;58851;42.984;20.336;2023-09-19T13:27:53;18.27;;;9.35;;
55330;SDS011;58851;42.984;20.336;2023-09-19T13:32:48;18.40;;;9.93;;
55330;SDS011;58851;42.984;20.336;2023-09-19T13:35:14;17.63;;;8.35;;
55330;SDS011;58851;42.984;20.336;2023-09-19T13:37:40;18.83;;;8.57;;
55330;SDS011;58851;42.984;20.336;2023-09-19T13:40:11;13.18;;;8.50;;
55330;SDS011;58851;42.984;20.336;2023-09-19T13:42:38;18.20;;;8.93;;
55330;SDS011;58851;42.984;20.336;2023-09-19T13:45:05;23.45;;;8.48;;
55330;SDS011;58851;42.984;20.336;2023-09-19T13:47:35;18.17;;;8.77;;
55330;SDS011;58851;42.984;20.336;2023-09-19T13:50:03;19.92;;;11.13;;
55330;SDS011;58851;42.984;20.336;2023-09-19T13:52:32;20.77;;;9.70;;
55330;SDS011;58851;42.984;20.336;2023-09-19T13:54:58;15.02;;;8.77;;
55330;SDS011;58851;42.984;20.336;2023-09-19T13:57:24;20.33;;;10.82;;
55330;SDS011;58851;42.984;20.336;2023-09-19T13:59:51;21.85;;;10.35;;
55330;SDS011;58851;42.984;20.336;2023-09-19T14:02:19;19.50;;;7.43;;
55330;SDS011;58851;42.984;20.336;2023-09-19T14:04:47;18.75;;;7.40;;
55330;SDS011;58851;42.984;20.336;2023-09-19T14:07:14;22.23;;;9.52;;
55330;SDS011;58851;42.984;20.336;2023-09-19T14:09:40;22.42;;;7.78;;
55330;SDS011;58851;42.984;20.336;2023-09-19T14:12:06;17.15;;;7.63;;
55330;SDS011;58851;42.984;20.336;2023-09-19T14:14:32;20.02;;;7.28;;
55330;SDS011;58851;42.984;20.336;2023-09-19T14:16:58;19.92;;;7.05;;
55330;SDS011;58851;42.984;20.336;2023-09-19T14:19:26;17.40;;;7.15;;
55330;SDS011;58851;42.984;20.336;2023-09-19T14:21:52;15.60;;;5.60;;
55330;SDS011;58851;42.984;20.336;2023-09-19T14:24:20;22.70;;;6.07;;
55330;SDS011;58851;42.984;20.336;2023-09-19T14:26:47;20.85;;;6.60;;
55330;SDS011;58851;42.984;20.336;2023-09-19T14:29:14;21.88;;;5.70;;
55330;SDS011;58851;42.984;20.336;2023-09-19T14:31:41;19.63;;;6.28;;
55330;SDS011;58851;42.984;20.336;2023-09-19T14:34:07;15.48;;;5.40;;
55330;SDS011;58851;42.984;20.336;2023-09-19T14:36:36;16.38;;;5.70;;
55330;SDS011;58851;42.984;20.336;2023-09-19T14:39:06;15.10;;;6.75;;
55330;SDS011;58851;42.984;20.336;2023-09-19T14:41:33;12.32;;;4.90;;
55330;SDS011;58851;42.984;20.336;2023-09-19T14:43:59;67.10;;;27.42;;
55330;SDS011;58851;42.984;20.336;2023-09-19T14:46:27;14.52;;;5.63;;
55330;SDS011;58851;42.984;20.336;2023-09-19T14:48:53;30.23;;;11.93;;
55330;SDS011;58851;42.984;20.336;2023-09-19T14:51:24;22.30;;;6.32;;
55330;SDS011;58851;42.984;20.336;2023-09-19T14:54:13;18.33;;;6.15;;
55330;SDS011;58851;42.984;20.336;2023-09-19T14:56:43;17.95;;;6.72;;
55330;SDS011;58851;42.984;20.336;2023-09-19T14:59:10;17.75;;;6.78;;
55330;SDS011;58851;42.984;20.336;2023-09-19T15:01:40;19.63;;;5.45;;
55330;SDS011;58851;42.984;20.336;2023-09-19T15:04:07;20.38;;;5.82;;
55330;SDS011;58851;42.984;20.336;2023-09-19T15:06:34;20.45;;;6.63;;
55330;SDS011;58851;42.984;20.336;2023-09-19T15:09:00;19.75;;;5.07;;
55330;SDS011;58851;42.984;20.336;2023-09-19T15:11:26;15.55;;;7.38;;
55330;SDS011;58851;42.984;20.336;2023-09-19T15:13:52;22.48;;;9.27;;
55330;SDS011;58851;42.984;20.336;2023-09-19T15:16:21;27.38;;;10.00;;
55330;SDS011;58851;42.984;20.336;2023-09-19T15:18:47;20.65;;;6.93;;
55330;SDS011;58851;42.984;20.336;2023-09-19T15:21:14;18.00;;;5.68;;
55330;SDS011;58851;42.984;20.336;2023-09-19T15:23:42;28.95;;;7.00;;
55330;SDS011;58851;42.984;20.336;2023-09-19T15:26:11;24.23;;;5.88;;
55330;SDS011;58851;42.984;20.336;2023-09-19T15:28:38;23.08;;;6.18;;
55330;SDS011;58851;42.984;20.336;2023-09-19T15:31:04;11.38;;;4.65;;
55330;SDS011;58851;42.984;20.336;2023-09-19T15:33:32;19.70;;;6.25;;
55330;SDS011;58851;42.984;20.336;2023-09-19T15:36:08;16.13;;;6.20;;
55330;SDS011;58851;42.984;20.336;2023-09-19T15:41:19;14.00;;;4.95;;
55330;SDS011;58851;42.984;20.336;2023-09-19T15:43:45;20.17;;;5.25;;
55330;SDS011;58851;42.984;20.336;2023-09-19T15:46:11;18.17;;;5.22;;
55330;SDS011;58851;42.984;20.336;2023-09-19T15:48:38;15.00;;;5.38;;
55330;SDS011;58851;42.984;20.336;2023-09-19T15:51:04;17.77;;;7.13;;
55330;SDS011;58851;42.984;20.336;2023-09-19T15:53:41;14.45;;;4.82;;
55330;SDS011;58851;42.984;20.336;2023-09-19T15:56:10;13.10;;;5.00;;
55330;SDS011;58851;42.984;20.336;2023-09-19T15:58:37;20.80;;;6.82;;
55330;SDS011;58851;42.984;20.336;2023-09-19T16:01:07;16.05;;;5.50;;
55330;SDS011;58851;42.984;20.336;2023-09-19T16:03:44;20.52;;;7.18;;
55330;SDS011;58851;42.984;20.336;2023-09-19T16:06:14;18.85;;;7.40;;
55330;SDS011;58851;42.984;20.336;2023-09-19T16:08:45;20.50;;;7.93;;
55330;SDS011;58851;42.984;20.336;2023-09-19T16:11:13;13.90;;;6.50;;